createdAt,value
2018-08-16T00:02:20.805Z,99392.66
2018-08-16T00:04:51.458Z,99394.55
2018-08-16T00:07:21.024Z,99397.75
2018-08-16T00:09:50.235Z,99390.94
2018-08-16T00:12:20.256Z,99380.59
2018-08-16T00:14:49.823Z,99383.25
2018-08-16T00:17:22.419Z,99374.91
2018-08-16T00:19:52.828Z,99377.59
2018-08-16T00:22:24.472Z,99372.11
2018-08-16T00:24:54.220Z,99289.24
2018-08-16T00:27:23.616Z,99373.91
2018-08-16T00:29:53.136Z,99371.75
2018-08-16T00:32:24.679Z,99365.66
2018-08-16T00:34:54.857Z,99362.45
2018-08-16T00:37:24.307Z,99361.95
2018-08-16T00:39:53.799Z,99358.23
2018-08-16T00:42:26.375Z,99357.51
2018-08-16T00:44:56.076Z,99365.22
2018-08-16T00:47:25.939Z,99365.41
2018-08-16T00:49:56.944Z,99361.55
2018-08-16T00:52:25.634Z,99360.52
2018-08-16T00:54:55.940Z,99361.52
2018-08-16T00:57:29.526Z,99355.62
2018-08-16T00:59:57.906Z,99353.80
2018-08-16T01:02:27.507Z,99352.76
2018-08-16T01:04:56.183Z,99348.72
2018-08-16T01:07:25.484Z,99349.02
2018-08-16T01:09:56.373Z,99357.38
2018-08-16T01:12:25.223Z,99350.35
2018-08-16T01:14:54.868Z,99353.80
2018-08-16T01:17:25.777Z,99346.05
2018-08-16T01:19:55.879Z,99347.71
2018-08-16T01:22:25.549Z,99349.78
2018-08-16T01:24:58.983Z,99348.16
2018-08-16T01:27:29.723Z,99350.20
2018-08-16T01:29:59.160Z,99349.57
2018-08-16T01:32:27.552Z,99352.61
2018-08-16T01:35:02.198Z,99351.91
2018-08-16T01:37:31.928Z,99347.13
2018-08-16T01:40:03.591Z,99349.94
2018-08-16T01:42:34.095Z,99344.52
2018-08-16T01:45:02.861Z,99341.41
2018-08-16T01:47:31.923Z,99344.75
2018-08-16T01:50:01.950Z,99343.52
2018-08-16T01:52:34.060Z,99347.19
2018-08-16T01:55:04.286Z,99342.99
2018-08-16T01:57:36.042Z,99334.61
2018-08-16T02:00:10.522Z,99333.41
2018-08-16T02:02:40.484Z,99336.94
2018-08-16T02:05:11.416Z,99332.38
2018-08-16T02:07:40.173Z,99330.14
2018-08-16T02:10:13.668Z,99331.80
2018-08-16T02:12:43.584Z,99329.33
2018-08-16T02:15:13.693Z,99330.33
2018-08-16T02:17:42.868Z,99328.22
2018-08-16T02:20:14.596Z,99320.80
2018-08-16T02:22:45.285Z,99328.52
2018-08-16T02:25:16.943Z,99323.83
2018-08-16T02:27:45.857Z,99324.64
2018-08-16T02:30:15.821Z,99322.94
2018-08-16T02:32:47.060Z,99319.65
2018-08-16T02:35:16.848Z,99316.64
2018-08-16T02:37:46.704Z,99313.73
2018-08-16T02:40:17.508Z,99309.40
2018-08-16T02:42:47.652Z,99305.72
2018-08-16T02:45:17.591Z,99311.25
2018-08-16T02:47:46.908Z,99313.73
2018-08-16T02:50:15.862Z,99315.36
2018-08-16T02:52:45.960Z,99311.11
2018-08-16T02:55:14.716Z,99308.68
2018-08-16T02:57:45.640Z,99306.44
2018-08-16T03:00:14.949Z,99309.25
2018-08-16T03:02:45.039Z,99311.73
2018-08-16T03:05:13.998Z,99306.86
2018-08-16T03:07:43.584Z,99304.52
2018-08-16T03:10:12.024Z,99311.39
2018-08-16T03:12:42.436Z,99303.43
2018-08-16T03:15:11.741Z,99307.11
2018-08-16T03:17:40.675Z,99308.96
2018-08-16T03:20:12.608Z,99303.89
2018-08-16T03:22:43.431Z,99300.09
2018-08-16T03:25:11.915Z,99302.29
2018-08-16T03:27:41.345Z,99295.08
2018-08-16T03:30:10.924Z,99297.18
2018-08-16T03:32:40.932Z,99296.47
2018-08-16T03:35:09.763Z,99293.64
2018-08-16T03:37:40.066Z,99288.41
2018-08-16T03:40:09.930Z,99290.27
2018-08-16T03:42:39.578Z,99290.49
2018-08-16T03:45:09.711Z,99284.06
2018-08-16T03:47:38.864Z,99284.40
2018-08-16T03:50:09.992Z,99286.59
2018-08-16T03:52:40.452Z,99278.68
2018-08-16T03:55:10.964Z,99277.20
2018-08-16T04:00:15.305Z,99271.48
2018-08-16T04:02:45.583Z,99269.33
2018-08-16T04:05:15.017Z,99263.91
2018-08-16T04:07:48.061Z,99271.48
2018-08-16T04:10:17.626Z,99270.26
2018-08-16T04:12:47.105Z,99273.44
2018-08-16T04:15:16.946Z,99274.53
2018-08-16T04:17:46.142Z,99277.13
2018-08-16T04:20:18.104Z,99280.20
2018-08-16T04:22:47.188Z,99279.89
2018-08-16T04:25:17.208Z,99274.46
2018-08-16T04:29:15.817Z,99275.63
2018-08-16T04:31:47.784Z,99278.81
2018-08-16T04:34:16.427Z,99282.07
2018-08-16T04:36:46.393Z,99278.28
2018-08-16T04:39:16.158Z,99279.72
2018-08-16T04:41:45.691Z,99277.73
2018-08-16T04:44:16.224Z,99279.97
2018-08-16T04:46:46.364Z,99277.87
2018-08-16T04:49:18.351Z,99277.27
2018-08-16T04:51:47.590Z,99277.75
2018-08-16T04:55:41.188Z,99289.75
2018-08-16T04:58:13.125Z,99282.36
2018-08-16T05:00:43.899Z,99278.94
2018-08-16T05:03:15.401Z,99280.73
2018-08-16T05:05:44.575Z,99282.22
2018-08-16T05:08:13.707Z,99285.53
2018-08-16T05:10:43.152Z,99287.14
2018-08-16T05:13:12.418Z,99280.53
2018-08-16T05:15:42.176Z,99283.27
2018-08-16T05:18:11.190Z,99279.18
2018-08-16T05:20:41.244Z,99282.56
2018-08-16T05:23:10.681Z,99283.46
2018-08-16T05:25:40.137Z,99277.77
2018-08-16T05:28:09.472Z,99282.11
2018-08-16T05:30:41.435Z,99280.21
2018-08-16T05:33:17.385Z,99279.20
2018-08-16T05:38:23.769Z,99278.55
2018-08-16T05:40:55.025Z,99270.98
2018-08-16T05:43:24.677Z,99269.72
2018-08-16T05:45:53.928Z,99270.56
2018-08-16T05:48:23.868Z,99274.92
2018-08-16T05:50:52.979Z,99268.31
2018-08-16T05:53:23.782Z,99263.67
2018-08-16T05:55:52.831Z,99258.84
2018-08-16T05:58:24.167Z,99256.17
2018-08-16T06:00:54.084Z,99248.16
2018-08-16T06:03:24.420Z,99248.41
2018-08-16T06:05:53.559Z,99250.05
2018-08-16T06:08:24.420Z,99249.46
2018-08-16T06:10:53.147Z,99253.87
2018-08-16T06:13:23.633Z,99246.05
2018-08-16T06:15:52.799Z,99249.81
2018-08-16T06:18:24.353Z,99249.31
2018-08-16T06:20:53.679Z,99243.52
2018-08-16T06:23:22.739Z,99247.80
2018-08-16T06:25:51.437Z,99242.75
2018-08-16T06:28:21.323Z,99238.30
2018-08-16T06:30:51.200Z,99243.92
2018-08-16T06:33:19.675Z,99205.77
2018-08-16T06:35:48.721Z,99237.39
2018-08-16T06:38:18.419Z,99234.58
2018-08-16T06:40:46.871Z,99231.92
2018-08-16T06:43:15.267Z,99234.08
2018-08-16T06:45:44.689Z,99237.53
2018-08-16T06:48:15.044Z,99232.30
2018-08-16T06:50:43.719Z,99238.12
2018-08-16T06:53:12.120Z,99231.91
2018-08-16T06:55:41.287Z,99229.89
2018-08-16T06:58:10.590Z,99240.92
2018-08-16T07:00:41.819Z,99237.63
2018-08-16T07:03:10.294Z,99224.55
2018-08-16T07:05:39.523Z,99222.87
2018-08-16T07:08:08.123Z,99219.73
2018-08-16T07:10:37.209Z,99209.23
2018-08-16T07:13:05.914Z,99217.17
2018-08-16T07:15:36.266Z,99209.91
2018-08-16T07:18:06.555Z,99216.81
2018-08-16T07:20:35.445Z,99210.66
2018-08-16T07:23:04.292Z,99210.93
2018-08-16T07:25:35.026Z,99211.14
2018-08-16T07:28:05.274Z,99207.70
2018-08-16T07:30:34.655Z,99199.59
2018-08-16T07:33:04.716Z,99202.63
2018-08-16T07:35:35.825Z,99195.23
2018-08-16T07:38:05.310Z,99204.47
2018-08-16T07:40:33.927Z,99199.36
2018-08-16T07:43:03.854Z,99195.58
2018-08-16T07:45:32.363Z,99190.01
2018-08-16T07:48:02.392Z,99166.97
2018-08-16T07:50:30.964Z,99191.58
2018-08-16T07:52:59.571Z,99182.71
2018-08-16T07:55:28.667Z,99188.98
2018-08-16T07:57:57.019Z,99184.23
2018-08-16T08:00:25.623Z,99182.11
2018-08-16T08:02:53.974Z,99179.98
2018-08-16T08:05:23.308Z,99149.83
2018-08-16T08:07:55.265Z,99170.37
2018-08-16T08:10:25.077Z,99173.39
2018-08-16T08:12:54.349Z,99175.67
2018-08-16T08:15:22.851Z,99162.39
2018-08-16T08:17:51.250Z,99155.97
2018-08-16T08:20:19.629Z,99158.36
2018-08-16T08:22:48.600Z,99157.94
2018-08-16T08:25:18.893Z,99161.44
2018-08-16T08:27:47.862Z,99153.85
2018-08-16T08:30:19.113Z,99154.40
2018-08-16T08:32:47.967Z,99153.91
2018-08-16T08:35:17.844Z,99158.01
2018-08-16T08:38:00.019Z,99151.38
2018-08-16T08:40:32.779Z,99145.77
2018-08-16T08:43:01.412Z,99151.56
2018-08-16T08:45:31.075Z,99152.22
2018-08-16T08:48:00.149Z,99148.81
2018-08-16T08:50:30.401Z,99146.25
2018-08-16T08:53:09.920Z,99147.43
2018-08-16T08:55:49.982Z,99149.28
2018-08-16T08:58:31.053Z,99146.02
2018-08-16T09:01:00.000Z,99147.17
2018-08-16T09:03:29.935Z,99145.64
2018-08-16T09:05:58.766Z,99145.78
2018-08-16T09:08:29.469Z,99144.08
2018-08-16T09:11:19.374Z,99141.14
2018-08-16T09:14:01.468Z,99135.78
2018-08-16T09:16:34.939Z,99128.50
2018-08-16T09:19:04.856Z,99125.29
2018-08-16T09:21:34.605Z,99130.17
2018-08-16T09:24:06.290Z,99129.34
2018-08-16T09:26:41.751Z,99125.14
2018-08-16T09:30:21.613Z,99116.97
2018-08-16T09:33:02.577Z,99113.44
2018-08-16T09:35:32.753Z,99111.66
2018-08-16T09:38:02.768Z,99106.59
2018-08-16T09:40:32.482Z,99110.93
2018-08-16T09:43:06.339Z,99101.97
2018-08-16T09:45:46.421Z,99103.21
2018-08-16T09:48:26.270Z,99104.91
2018-08-16T09:50:54.684Z,99098.66
2018-08-16T09:53:24.386Z,99102.09
2018-08-16T09:55:53.247Z,99099.00
2018-08-16T09:58:22.177Z,99104.27
2018-08-16T10:01:25.109Z,99102.66
2018-08-16T10:03:54.205Z,99100.46
2018-08-16T10:06:22.599Z,99091.45
2018-08-16T10:08:51.200Z,99098.02
2018-08-16T10:11:20.365Z,99096.30
2018-08-16T10:13:50.420Z,99095.88
2018-08-16T10:16:20.026Z,99084.55
2018-08-16T10:18:49.997Z,99091.17
2018-08-16T10:21:19.590Z,99085.39
2018-08-16T10:23:49.168Z,99085.95
2018-08-16T10:26:19.146Z,99077.41
2018-08-16T10:28:48.948Z,99069.39
2018-08-16T10:31:18.415Z,99049.88
2018-08-16T10:33:47.336Z,99068.81
2018-08-16T10:36:16.412Z,99062.76
2018-08-16T10:38:46.556Z,99060.52
2018-08-16T10:44:46.401Z,99061.36
2018-08-16T10:47:16.037Z,99057.15
2018-08-16T10:49:46.799Z,99057.70
2018-08-16T10:52:15.852Z,99046.20
2018-08-16T10:54:44.196Z,99048.33
2018-08-16T10:57:13.527Z,99046.20
2018-08-16T10:59:42.712Z,99043.45
2018-08-16T11:02:11.690Z,99044.05
2018-08-16T11:04:40.049Z,99036.18
2018-08-16T11:07:14.523Z,99029.59
2018-08-16T11:09:43.873Z,99032.66
2018-08-16T11:12:15.749Z,99028.81
2018-08-16T11:14:45.061Z,99024.08
2018-08-16T11:17:14.740Z,99027.16
2018-08-16T11:19:43.068Z,99025.80
2018-08-16T11:22:11.941Z,99020.69
2018-08-16T11:24:42.056Z,99019.57
2018-08-16T11:27:11.393Z,99008.66
2018-08-16T11:29:41.645Z,99013.13
2018-08-16T11:32:10.650Z,99015.39
2018-08-16T11:34:39.540Z,99006.20
2018-08-16T11:37:09.203Z,99005.47
2018-08-16T11:39:38.307Z,98999.45
2018-08-16T11:42:08.831Z,98990.30
2018-08-16T11:44:37.391Z,98996.18
2018-08-16T11:47:07.148Z,98994.33
2018-08-16T11:49:37.351Z,98996.33
2018-08-16T11:52:06.597Z,98989.48
2018-08-16T11:54:35.195Z,98981.55
2018-08-16T11:57:05.106Z,98971.76
2018-08-16T11:59:33.896Z,98974.43
2018-08-16T12:02:03.055Z,98967.88
2018-08-16T12:04:32.881Z,98973.02
2018-08-16T12:07:03.450Z,98976.11
2018-08-16T12:09:33.009Z,98968.89
2018-08-16T12:12:01.513Z,98968.59
2018-08-16T12:14:31.134Z,98962.59
2018-08-16T12:16:59.587Z,98969.20
2018-08-16T12:19:27.921Z,98967.52
2018-08-16T12:21:57.953Z,98968.34
2018-08-16T12:24:26.302Z,98963.48
2018-08-16T12:26:55.578Z,98960.14
2018-08-16T12:29:25.927Z,98957.92
2018-08-16T12:31:55.932Z,98955.19
2018-08-16T12:34:24.869Z,98951.75
2018-08-16T12:36:53.919Z,98945.19
2018-08-16T12:39:22.894Z,98948.81
2018-08-16T12:41:52.364Z,98949.17
2018-08-16T12:44:20.632Z,98946.27
2018-08-16T12:46:49.060Z,98946.74
2018-08-16T12:49:17.644Z,98944.96
2018-08-16T12:51:46.522Z,98939.82
2018-08-16T12:54:16.614Z,98942.70
2018-08-16T12:56:45.723Z,98942.06
2018-08-16T12:59:15.392Z,98940.78
2018-08-16T13:01:44.330Z,98943.06
2018-08-16T13:04:14.682Z,98941.59
2018-08-16T13:06:42.991Z,98940.55
2018-08-16T13:09:11.363Z,98936.10
2018-08-16T13:11:42.756Z,98932.64
2018-08-16T13:14:11.370Z,98932.16
2018-08-16T13:16:41.253Z,98925.54
2018-08-16T13:19:10.076Z,98921.14
2018-08-16T13:21:38.467Z,98916.08
2018-08-16T13:24:07.367Z,98918.13
2018-08-16T13:27:07.868Z,98914.45
2018-08-16T13:29:37.228Z,98908.29
2018-08-16T13:32:07.254Z,98903.77
2018-08-16T13:34:37.425Z,98900.38
2018-08-16T13:37:06.521Z,98894.05
2018-08-16T13:39:35.461Z,98891.75
2018-08-16T13:42:05.295Z,98888.87
2018-08-16T13:44:33.664Z,98892.16
2018-08-16T13:47:05.045Z,98894.36
2018-08-16T13:49:33.501Z,98882.83
2018-08-16T13:52:04.064Z,98888.23
2018-08-16T13:54:32.995Z,98882.06
2018-08-16T13:57:01.387Z,98889.33
2018-08-16T13:59:30.219Z,98884.69
2018-08-16T14:02:01.173Z,98886.40
2018-08-16T14:04:32.075Z,98883.34
2018-08-16T14:07:01.120Z,98881.57
2018-08-16T14:09:30.424Z,98879.80
2018-08-16T14:12:00.028Z,98871.30
2018-08-16T14:14:28.867Z,98869.00
2018-08-16T14:16:57.764Z,98871.80
2018-08-16T14:22:58.368Z,98856.17
2018-08-16T14:25:26.709Z,98863.84
2018-08-16T14:27:55.076Z,98859.95
2018-08-16T14:30:24.773Z,98856.44
2018-08-16T14:32:56.729Z,98849.58
2018-08-16T14:35:25.744Z,98849.83
2018-08-16T14:37:55.625Z,98845.77
2018-08-16T14:40:24.301Z,98843.27
2018-08-16T14:42:53.004Z,98845.19
2018-08-16T14:45:23.125Z,98845.47
2018-08-16T14:47:51.572Z,98843.55
2018-08-16T14:50:21.332Z,98843.00
2018-08-16T14:52:51.108Z,98844.92
2018-08-16T14:55:20.771Z,98815.83
2018-08-16T14:57:50.128Z,98844.94
2018-08-16T15:00:19.479Z,98840.23
2018-08-16T15:02:49.591Z,98841.55
2018-08-16T15:05:18.415Z,98818.79
2018-08-16T15:07:48.147Z,98829.28
2018-08-16T15:10:17.029Z,98822.99
2018-08-16T15:12:47.283Z,98823.25
2018-08-16T15:15:16.056Z,98819.41
2018-08-16T15:17:49.907Z,98819.14
2018-08-16T15:20:19.536Z,98809.28
2018-08-16T15:22:49.340Z,98818.84
2018-08-16T15:25:19.533Z,98806.53
2018-08-16T15:27:48.905Z,98813.11
2018-08-16T15:30:18.517Z,98804.84
2018-08-16T15:32:48.652Z,98808.66
2018-08-16T15:35:18.463Z,98806.48
2018-08-16T15:37:47.800Z,98802.66
2018-08-16T15:40:18.342Z,98803.39
2018-08-16T15:42:48.571Z,98805.78
2018-08-16T15:45:19.974Z,98801.12
2018-08-16T15:47:49.468Z,98795.08
2018-08-16T15:50:17.903Z,98803.50
2018-08-16T15:52:46.300Z,98796.63
2018-08-16T15:55:15.811Z,98796.75
2018-08-16T15:57:45.580Z,98792.56
2018-08-16T16:00:13.925Z,98791.16
2018-08-16T16:02:44.195Z,98790.16
2018-08-16T16:05:13.473Z,98765.44
2018-08-16T16:07:42.759Z,98786.72
2018-08-16T16:10:14.424Z,98779.30
2018-08-16T16:12:45.895Z,98781.48
2018-08-16T16:15:20.535Z,98784.80
2018-08-16T16:17:49.940Z,98777.40
2018-08-16T16:20:19.547Z,98780.34
2018-08-16T16:22:50.340Z,98781.95
2018-08-16T16:25:21.124Z,98773.53
2018-08-16T16:27:50.812Z,98771.25
2018-08-16T16:30:19.589Z,98766.63
2018-08-16T16:32:51.528Z,98767.94
2018-08-16T16:35:20.645Z,98765.41
2018-08-16T16:37:50.629Z,98766.53
2018-08-16T16:40:20.699Z,98764.16
2018-08-16T16:42:50.460Z,98765.50
2018-08-16T16:45:19.811Z,98761.72
2018-08-16T16:47:49.088Z,98760.58
2018-08-16T16:50:19.160Z,98758.55
2018-08-16T16:52:49.011Z,98757.23
2018-08-16T16:55:17.856Z,98755.00
2018-08-16T16:57:47.634Z,98751.11
2018-08-16T17:00:16.408Z,98753.56
2018-08-16T17:02:46.432Z,98759.37
2018-08-16T17:05:15.041Z,98753.02
2018-08-16T17:07:44.672Z,98751.56
2018-08-16T17:10:15.384Z,98754.77
2018-08-16T17:12:45.756Z,98756.86
2018-08-16T17:15:14.152Z,98750.02
2018-08-16T17:17:43.279Z,98747.20
2018-08-16T17:20:13.289Z,98747.23
2018-08-16T17:22:43.696Z,98607.83
2018-08-16T17:25:12.680Z,98734.69
2018-08-16T17:27:42.517Z,98742.70
2018-08-16T17:30:12.036Z,98743.83
2018-08-16T17:32:40.506Z,98744.00
2018-08-16T17:35:09.384Z,98736.84
2018-08-16T17:37:38.788Z,98731.24
2018-08-16T17:40:07.476Z,98734.89
2018-08-16T17:42:36.577Z,98731.64
2018-08-16T17:45:05.376Z,98728.37
2018-08-16T17:47:33.836Z,98730.25
2018-08-16T17:50:02.213Z,98730.05
2018-08-16T17:52:31.294Z,98707.30
2018-08-16T17:55:00.499Z,98732.07
2018-08-16T17:57:30.464Z,98724.31
2018-08-16T17:59:59.895Z,98736.29
2018-08-16T18:02:29.449Z,98730.09
2018-08-16T18:04:59.132Z,98733.45
2018-08-16T18:07:33.699Z,98731.20
2018-08-16T18:10:03.573Z,98729.47
2018-08-16T18:12:32.543Z,98728.16
2018-08-16T18:39:02.435Z,98729.15
2018-08-16T18:41:32.216Z,98729.66
2018-08-16T18:44:06.584Z,98733.05
2018-08-16T18:46:42.228Z,98737.73
2018-08-16T18:49:11.688Z,98742.08
2018-08-16T18:51:47.884Z,98741.52
2018-08-16T18:54:23.943Z,98742.08
2018-08-16T18:56:54.348Z,98749.20
2018-08-16T18:59:26.985Z,98742.59
2018-08-16T19:01:58.601Z,98743.70
2018-08-16T19:04:28.943Z,98742.72
2018-08-16T19:06:58.259Z,98725.12
2018-08-16T19:09:29.668Z,98746.20
2018-08-16T19:12:00.122Z,98749.40
2018-08-16T19:14:30.232Z,98749.83
2018-08-16T19:17:01.628Z,98757.27
2018-08-16T19:19:34.082Z,98756.13
2018-08-16T19:22:03.266Z,98761.54
2018-08-16T19:24:33.484Z,98764.77
2018-08-16T19:27:05.114Z,98766.04
2018-08-16T19:29:35.536Z,98765.48
2018-08-16T19:32:10.208Z,98766.11
2018-08-16T19:34:39.856Z,98761.89
2018-08-16T19:37:10.252Z,98766.41
2018-08-16T19:39:43.824Z,98768.47
2018-08-16T19:42:12.958Z,98765.94
2018-08-16T19:44:47.117Z,98763.07
2018-08-16T19:47:15.645Z,98763.86
2018-08-16T19:49:44.918Z,98769.34
2018-08-16T19:52:15.332Z,98770.12
2018-08-16T19:54:50.263Z,98773.06
2018-08-16T19:57:20.904Z,98778.67
2018-08-16T19:59:57.176Z,98776.63
2018-08-16T20:02:26.864Z,98778.98
2018-08-16T20:04:58.555Z,98778.83
2018-08-16T20:07:27.198Z,98776.42
2018-08-16T20:10:01.723Z,98785.00
2018-08-16T20:12:35.808Z,98783.33
2018-08-16T20:15:06.283Z,98777.62
2018-08-16T20:17:36.079Z,98775.88
2018-08-16T20:20:13.105Z,98775.72
2018-08-16T20:22:44.364Z,98779.23
2018-08-16T20:25:19.878Z,98771.88
2018-08-16T20:27:50.595Z,98773.02
2018-08-16T20:30:21.959Z,98776.56
2018-08-16T20:32:51.471Z,98775.92
2018-08-16T20:35:23.997Z,98779.81
2018-08-16T20:37:54.071Z,98785.20
2018-08-16T20:40:29.502Z,98776.87
2018-08-16T20:42:59.692Z,98777.81
2018-08-16T20:45:31.824Z,98780.40
2018-08-16T20:48:02.594Z,98777.09
2018-08-16T20:50:32.636Z,98785.69
2018-08-16T20:53:01.696Z,98785.92
2018-08-16T20:55:32.190Z,98779.27
2018-08-16T20:58:01.655Z,98784.45
2018-08-16T21:00:32.304Z,98781.03
2018-08-16T21:03:05.173Z,98787.13
2018-08-16T21:05:36.820Z,98778.12
2018-08-16T21:08:09.184Z,98781.00
2018-08-16T21:10:41.592Z,98783.32
2018-08-16T21:13:12.545Z,98788.30
2018-08-16T21:15:46.150Z,98785.23
2018-08-16T21:18:15.528Z,98787.70
2018-08-16T21:20:46.100Z,98787.11
2018-08-16T21:23:19.113Z,98786.70
2018-08-16T21:25:49.768Z,98792.41
2018-08-16T21:28:19.208Z,98795.41
2018-08-16T21:30:54.020Z,98795.42
2018-08-16T21:33:24.573Z,98785.56
2018-08-16T21:35:55.700Z,98786.61
2018-08-16T21:38:27.697Z,98790.51
2018-08-16T21:40:58.321Z,98789.89
2018-08-16T21:43:30.086Z,98784.08
2018-08-16T21:46:00.157Z,98789.43
2018-08-16T21:48:31.256Z,98791.63
2018-08-16T21:51:04.045Z,98794.43
2018-08-16T21:53:35.713Z,98794.20
2018-08-16T21:56:06.258Z,98789.81
2018-08-16T21:58:42.502Z,98788.77
2018-08-16T22:01:14.470Z,98797.42
2018-08-16T22:03:45.664Z,98799.26
2018-08-16T22:06:28.285Z,98800.72
2018-08-16T22:08:58.493Z,98807.57
2018-08-16T22:11:29.337Z,98797.80
2018-08-16T22:14:00.707Z,98802.44
2018-08-16T22:16:30.808Z,98771.80
2018-08-16T22:19:02.627Z,98798.16
2018-08-16T22:21:31.943Z,98800.86
2018-08-16T22:24:08.887Z,98800.93
2018-08-16T22:26:40.197Z,98801.12
2018-08-16T22:29:10.401Z,98802.34
2018-08-16T22:31:52.412Z,98803.02
2018-08-16T22:34:23.084Z,98809.05
2018-08-16T22:36:53.292Z,98804.67
2018-08-16T22:39:23.575Z,98801.73
2018-08-16T22:41:54.804Z,98800.09
2018-08-16T22:44:24.915Z,98808.48
2018-08-16T22:46:54.808Z,98811.05
2018-08-16T22:49:24.508Z,98809.77
2018-08-16T22:51:55.690Z,98812.20
2018-08-16T22:54:25.256Z,98809.13
2018-08-16T22:56:57.976Z,98808.70
2018-08-16T22:59:28.908Z,98802.75
2018-08-16T23:02:00.479Z,98800.72
2018-08-16T23:04:32.748Z,98802.50
2018-08-16T23:07:01.989Z,98803.80
2018-08-16T23:09:31.432Z,98802.82
2018-08-16T23:12:01.720Z,98794.36
2018-08-16T23:14:32.502Z,98800.05
2018-08-16T23:17:02.904Z,98790.64
2018-08-16T23:19:35.871Z,98782.88
2018-08-16T23:22:08.308Z,98780.91
2018-08-16T23:24:45.765Z,98781.95
2018-08-16T23:27:15.513Z,98787.20
2018-08-16T23:29:46.599Z,98784.75
2018-08-16T23:32:18.396Z,98787.72
2018-08-16T23:34:50.576Z,98783.53
2018-08-16T23:37:19.879Z,98781.56
2018-08-16T23:39:57.152Z,98783.60
2018-08-16T23:42:26.208Z,98793.57
2018-08-16T23:44:58.000Z,98794.22
2018-08-16T23:47:29.969Z,98788.79
2018-08-16T23:49:59.772Z,98791.66
2018-08-16T23:52:30.425Z,98793.16
2018-08-16T23:55:01.164Z,98789.34
2018-08-16T23:57:31.584Z,98782.39
